Terminal Aerodrome Forecast
Issued by NWS

Home | Current Version | Previous Version | Text Only | Print | Product List | Glossary On
Versions: 1 2 3 4 5 6 7 8 9 10 11 12 13 14 15 16 17 18 19 20 21 22 23 24 25 26 27 28 29 30 31 32 33 34
481
FTUS45 KGJT 012331 AAA
TAFMTJ
TAF AMD
KMTJ 012331Z 0200/0224 28003KT P6SM VCSH OVC070
     FM020100 13009KT P6SM VCSH OVC080
     FM020800 11005KT P6SM VCSH OVC070
     FM021000 11005KT P6SM OVC080
     FM021700 36004KT P6SM OVC050=

USA.gov is the U.S. government's official web portal to all federal, state and local government web resources and services.